Seltzer, Pennsylvania
Current Conditions -  °F | °C
As of 8:35 AM on Monday 24 Nov 2014 (Local Time) from KHZL Reporting Station
Overcast Overcast  
Wind Chill: 59°   Ceiling: 1300
Heat Index: 59°   Visibility: 10mi
Dew Point: 57°   Wind: 8mph
Humidity: 94%   Direction: 170°S
Pressure: 29.65"   Gusts: 20mph
Location:  40.7°N, 76.23°W
Report Text: KHZL 241335Z AUTO 17007G17KT 10SM OVC013 15/14 A2965 RMK AO2 LTG DSNT S
Loading
Personal Weather Stations






























Interactive Weather Map New forecast layout! Learn more

10-Day Weather Forecast

Advertisements
Track Severe Weather on mobile